createdAt,value
2016-12-31T00:00:40.430Z,1017.24
2016-12-31T00:01:40.443Z,1017.27
2016-12-31T00:02:40.452Z,1017.26
2016-12-31T00:03:40.463Z,1017.29
2016-12-31T00:04:40.475Z,1017.28
2016-12-31T00:05:40.483Z,1017.31
2016-12-31T00:06:40.495Z,1017.3
2016-12-31T00:07:40.502Z,1017.31
2016-12-31T00:08:40.515Z,1017.27
2016-12-31T00:09:40.531Z,1017.28
2016-12-31T00:10:40.535Z,1017.28
2016-12-31T00:11:40.545Z,1017.25
2016-12-31T00:12:40.552Z,1017.31
2016-12-31T00:13:40.567Z,1017.32
2016-12-31T00:14:40.574Z,1017.35
2016-12-31T00:15:40.582Z,1017.38
2016-12-31T00:16:40.591Z,1017.4
2016-12-31T00:17:40.610Z,1017.37
2016-12-31T00:18:40.616Z,1017.39
2016-12-31T00:19:40.626Z,1017.38
2016-12-31T00:20:40.635Z,1017.41
2016-12-31T00:21:40.645Z,1017.42
2016-12-31T00:22:40.658Z,1017.46
2016-12-31T00:23:40.663Z,1017.46
2016-12-31T00:24:40.675Z,1017.42
2016-12-31T00:25:40.692Z,1017.44
2016-12-31T00:26:40.694Z,1017.42
2016-12-31T00:27:40.708Z,1017.45
2016-12-31T00:28:40.719Z,1017.42
2016-12-31T00:29:40.726Z,1017.52
2016-12-31T00:30:40.735Z,1017.44
2016-12-31T00:31:40.747Z,1017.44
2016-12-31T00:32:40.757Z,1017.4
2016-12-31T00:33:40.771Z,1017.4
2016-12-31T00:34:40.781Z,1017.41
2016-12-31T00:35:40.788Z,1017.36
2016-12-31T00:36:40.800Z,1017.4
2016-12-31T00:37:40.812Z,1017.41
2016-12-31T00:38:40.824Z,1017.41
2016-12-31T00:39:40.828Z,1017.41
2016-12-31T00:40:40.841Z,1017.36
2016-12-31T00:41:40.849Z,1017.36
2016-12-31T00:42:40.859Z,1017.39
2016-12-31T00:43:40.871Z,1017.37
2016-12-31T00:44:40.877Z,1017.4
2016-12-31T00:45:40.892Z,1017.4
2016-12-31T00:46:40.899Z,1017.41
2016-12-31T00:47:40.909Z,1017.4
2016-12-31T00:48:40.918Z,1017.42
2016-12-31T00:49:40.931Z,1017.42
2016-12-31T00:50:40.943Z,1017.41
2016-12-31T00:51:40.949Z,1017.41
2016-12-31T00:52:40.956Z,1017.39
2016-12-31T00:53:40.968Z,1017.41
2016-12-31T00:54:40.981Z,1017.38
2016-12-31T00:55:40.988Z,1017.36
2016-12-31T00:56:40.999Z,1017.37
2016-12-31T00:57:41.007Z,1017.38
2016-12-31T00:58:41.018Z,1017.37
2016-12-31T00:59:41.030Z,1017.33
2016-12-31T01:00:41.037Z,1017.38
2016-12-31T01:01:41.047Z,1017.35
2016-12-31T01:02:41.057Z,1017.34
2016-12-31T01:03:41.067Z,1017.3
2016-12-31T01:04:41.079Z,1017.31
2016-12-31T01:05:41.087Z,1017.33
2016-12-31T01:06:41.100Z,1017.34
2016-12-31T01:07:41.106Z,1017.33
2016-12-31T01:08:41.117Z,1017.32
2016-12-31T01:09:41.128Z,1017.34
2016-12-31T01:10:41.133Z,1017.33
2016-12-31T01:11:41.145Z,1017.31
2016-12-31T01:12:41.155Z,1017.35
2016-12-31T01:13:41.165Z,1017.33
2016-12-31T01:14:41.176Z,1017.32
2016-12-31T01:15:41.181Z,1017.34
2016-12-31T01:16:41.198Z,1017.31
2016-12-31T01:17:41.203Z,1017.3
2016-12-31T01:18:41.209Z,1017.26
2016-12-31T01:19:41.223Z,1017.32
2016-12-31T01:20:41.230Z,1017.3
2016-12-31T01:21:41.241Z,1017.31
2016-12-31T01:22:41.252Z,1017.3
2016-12-31T01:23:41.260Z,1017.27
2016-12-31T01:24:41.271Z,1017.28
2016-12-31T01:25:41.276Z,1017.23
2016-12-31T01:26:41.294Z,1017.22
2016-12-31T01:27:41.302Z,1017.27
2016-12-31T01:28:41.307Z,1017.23
2016-12-31T01:29:41.317Z,1017.22
2016-12-31T01:30:41.328Z,1017.19
2016-12-31T01:31:41.335Z,1017.15
2016-12-31T01:32:41.346Z,1017.17
2016-12-31T01:33:41.355Z,1017.16
2016-12-31T01:34:41.369Z,1017.2
2016-12-31T01:35:41.374Z,1017.2
2016-12-31T01:36:41.387Z,1017.17
2016-12-31T01:37:41.393Z,1017.17
2016-12-31T01:38:41.405Z,1017.15
2016-12-31T01:39:41.415Z,1017.15
2016-12-31T01:40:41.427Z,1017.16
2016-12-31T01:41:41.434Z,1017.11
2016-12-31T01:42:41.445Z,1017.14
2016-12-31T01:43:41.454Z,1017.16
2016-12-31T01:44:41.461Z,1017.07
2016-12-31T01:45:41.472Z,1017.08
2016-12-31T01:46:41.479Z,1017.1
2016-12-31T01:47:41.487Z,1017.13
2016-12-31T01:48:41.501Z,1017.14
2016-12-31T01:49:41.512Z,1017.07
2016-12-31T01:50:41.515Z,1017.14
2016-12-31T01:51:41.529Z,1017.08
2016-12-31T01:52:41.536Z,1017.1
2016-12-31T01:53:41.546Z,1017.07
2016-12-31T01:54:41.555Z,1017.07
2016-12-31T01:55:41.564Z,1017.04
2016-12-31T01:56:41.575Z,1017.05
2016-12-31T01:57:41.582Z,1017.04
2016-12-31T01:58:41.595Z,1017.01
2016-12-31T01:59:41.606Z,1016.99
2016-12-31T02:00:41.613Z,1016.98
2016-12-31T02:01:41.622Z,1017.04
2016-12-31T02:02:41.631Z,1017
2016-12-31T02:03:41.643Z,1017.01
2016-12-31T02:04:41.655Z,1016.97
2016-12-31T02:05:41.661Z,1016.91
2016-12-31T02:06:41.666Z,1016.91
2016-12-31T02:07:41.679Z,1016.9
2016-12-31T02:08:41.685Z,1016.91
2016-12-31T02:09:41.699Z,1016.87
2016-12-31T02:10:41.710Z,1016.91
2016-12-31T02:11:41.716Z,1016.88
2016-12-31T02:12:41.729Z,1016.87
2016-12-31T02:13:41.738Z,1016.89
2016-12-31T02:14:41.749Z,1016.83
2016-12-31T02:15:41.757Z,1016.91
2016-12-31T02:16:41.769Z,1016.88
2016-12-31T02:17:41.775Z,1016.9
2016-12-31T02:18:41.784Z,1016.86
2016-12-31T02:19:41.795Z,1016.86
2016-12-31T02:20:41.805Z,1016.86
2016-12-31T02:21:41.812Z,1016.82
2016-12-31T02:22:41.820Z,1016.79
2016-12-31T02:23:41.830Z,1016.81
2016-12-31T02:24:41.844Z,1016.79
2016-12-31T02:25:41.855Z,1016.85
2016-12-31T02:26:41.862Z,1016.82
2016-12-31T02:27:41.874Z,1016.78
2016-12-31T02:28:41.878Z,1016.79
2016-12-31T02:29:41.890Z,1016.78
2016-12-31T02:30:41.899Z,1016.74
2016-12-31T02:31:41.909Z,1016.78
2016-12-31T02:32:41.917Z,1016.74
2016-12-31T02:33:41.930Z,1016.74
2016-12-31T02:34:41.937Z,1016.74
2016-12-31T02:35:41.945Z,1016.73
2016-12-31T02:36:41.954Z,1016.73
2016-12-31T02:37:41.963Z,1016.7
2016-12-31T02:38:41.974Z,1016.73
2016-12-31T02:39:41.985Z,1016.75
2016-12-31T02:40:41.997Z,1016.75
2016-12-31T02:41:42.003Z,1016.74
2016-12-31T02:42:42.013Z,1016.74
2016-12-31T02:43:42.023Z,1016.75
2016-12-31T02:44:42.031Z,1016.7
2016-12-31T02:45:42.039Z,1016.75
2016-12-31T02:46:42.049Z,1016.74
2016-12-31T02:47:42.060Z,1016.73
2016-12-31T02:48:42.068Z,1016.72
2016-12-31T02:49:42.079Z,1016.75
2016-12-31T02:50:42.091Z,1016.75
2016-12-31T02:51:42.099Z,1016.76
2016-12-31T02:52:42.109Z,1016.73
2016-12-31T02:53:42.115Z,1016.74
2016-12-31T02:54:42.126Z,1016.77
2016-12-31T02:55:42.133Z,1016.78
2016-12-31T02:56:42.147Z,1016.72
2016-12-31T02:57:42.154Z,1016.7
2016-12-31T02:58:42.164Z,1016.69
2016-12-31T02:59:42.170Z,1016.71
2016-12-31T03:00:42.181Z,1016.69
2016-12-31T03:01:42.195Z,1016.69
2016-12-31T03:02:42.201Z,1016.64
2016-12-31T03:03:42.212Z,1016.66
2016-12-31T03:04:42.218Z,1016.64
2016-12-31T03:05:42.228Z,1016.66
2016-12-31T03:06:42.237Z,1016.6
2016-12-31T03:07:42.251Z,1016.59
2016-12-31T03:08:42.258Z,1016.6
2016-12-31T03:09:42.267Z,1016.61
2016-12-31T03:10:42.273Z,1016.57
2016-12-31T03:11:42.287Z,1016.56
2016-12-31T03:12:42.298Z,1016.55
2016-12-31T03:13:42.307Z,1016.52
2016-12-31T03:14:42.315Z,1016.52
2016-12-31T03:15:42.325Z,1016.51
2016-12-31T03:16:42.332Z,1016.52
2016-12-31T03:17:42.343Z,1016.48
2016-12-31T03:18:42.351Z,1016.5
2016-12-31T03:19:42.359Z,1016.46
2016-12-31T03:20:42.367Z,1016.48
2016-12-31T03:21:42.379Z,1016.49
2016-12-31T03:22:42.391Z,1016.41
2016-12-31T03:23:42.400Z,1016.41
2016-12-31T03:24:42.411Z,1016.44
2016-12-31T03:25:42.416Z,1016.41
2016-12-31T03:26:42.425Z,1016.42
2016-12-31T03:27:42.438Z,1016.39
2016-12-31T03:28:42.442Z,1016.35
2016-12-31T03:29:42.452Z,1016.36
2016-12-31T03:30:42.462Z,1016.32
2016-12-31T03:31:42.471Z,1016.34
2016-12-31T03:32:42.483Z,1016.32
2016-12-31T03:33:42.490Z,1016.3
2016-12-31T03:34:42.500Z,1016.28
2016-12-31T03:35:42.512Z,1016.28
2016-12-31T03:36:42.522Z,1016.3
2016-12-31T03:37:42.527Z,1016.25
2016-12-31T03:38:42.540Z,1016.26
2016-12-31T03:39:42.551Z,1016.28
2016-12-31T03:40:42.559Z,1016.25
2016-12-31T03:41:42.569Z,1016.24
2016-12-31T03:42:42.576Z,1016.24
2016-12-31T03:43:42.586Z,1016.24
2016-12-31T03:44:42.593Z,1016.23
2016-12-31T03:45:42.604Z,1016.22
2016-12-31T03:46:42.618Z,1016.21
2016-12-31T03:47:42.623Z,1016.21
2016-12-31T03:48:42.633Z,1016.19
2016-12-31T03:49:42.643Z,1016.18
2016-12-31T03:50:42.654Z,1016.15
2016-12-31T03:51:42.664Z,1016.15
2016-12-31T03:52:42.669Z,1016.17
2016-12-31T03:53:42.681Z,1016.14
2016-12-31T03:54:42.690Z,1016.14
2016-12-31T03:55:42.697Z,1016.14
2016-12-31T03:56:42.713Z,1016.13
2016-12-31T03:57:42.718Z,1016.12
2016-12-31T03:58:42.731Z,1016.1
2016-12-31T03:59:42.738Z,1016.08
2016-12-31T04:01:42.748Z,1016.06
2016-12-31T04:02:42.758Z,1016.03
2016-12-31T04:03:42.770Z,1016.07
2016-12-31T04:04:42.780Z,1016.03
2016-12-31T04:05:42.785Z,1016.04
2016-12-31T04:06:42.795Z,1016.04
2016-12-31T04:07:42.809Z,1016.01
2016-12-31T04:08:42.815Z,1016.03
2016-12-31T04:09:42.824Z,1016.03
2016-12-31T04:10:42.836Z,1016.03
2016-12-31T04:11:42.861Z,1015.99
2016-12-31T04:12:42.852Z,1016.02
2016-12-31T04:13:42.862Z,1016.05
2016-12-31T04:14:42.871Z,1016.04
2016-12-31T04:15:42.882Z,1016.04
2016-12-31T04:16:42.892Z,1016.05
2016-12-31T04:17:42.900Z,1016.04
2016-12-31T04:18:42.909Z,1016.09
2016-12-31T04:19:42.919Z,1016.06
2016-12-31T04:20:42.928Z,1016.07
2016-12-31T04:21:42.935Z,1016.07
2016-12-31T04:22:42.950Z,1016.04
2016-12-31T04:23:42.956Z,1016.02
2016-12-31T04:24:42.967Z,1016.05
2016-12-31T04:25:42.974Z,1016.03
2016-12-31T04:26:42.987Z,1016.02
2016-12-31T04:27:42.995Z,1016.06
2016-12-31T04:28:43.004Z,1016.04
2016-12-31T04:29:43.010Z,1016.02
2016-12-31T04:30:43.020Z,1016
2016-12-31T04:31:43.032Z,1016.01
2016-12-31T04:32:43.041Z,1016
2016-12-31T04:33:43.046Z,1016
2016-12-31T04:34:43.058Z,1016.03
2016-12-31T04:35:43.067Z,1015.99
2016-12-31T04:36:43.075Z,1015.97
2016-12-31T04:37:43.087Z,1016
2016-12-31T04:38:43.094Z,1015.96
2016-12-31T04:39:43.103Z,1015.98
2016-12-31T04:40:43.115Z,1015.92
2016-12-31T04:41:43.122Z,1015.96
2016-12-31T04:42:43.131Z,1015.98
2016-12-31T04:43:43.139Z,1015.98
2016-12-31T04:44:43.148Z,1015.97
2016-12-31T04:45:43.161Z,1016.01
2016-12-31T04:46:43.168Z,1015.97
2016-12-31T04:47:43.175Z,1016
2016-12-31T04:48:43.184Z,1016.01
2016-12-31T04:49:43.194Z,1016
2016-12-31T04:50:43.202Z,1015.97
2016-12-31T04:51:43.215Z,1015.98
2016-12-31T04:52:43.223Z,1015.95
2016-12-31T04:53:43.230Z,1015.98
2016-12-31T04:54:43.244Z,1015.98
2016-12-31T04:55:43.254Z,1015.98
2016-12-31T04:56:43.260Z,1016.04
2016-12-31T04:57:43.268Z,1016.03
2016-12-31T04:58:43.278Z,1016.04
2016-12-31T04:59:43.290Z,1016.1
2016-12-31T05:00:43.295Z,1016.01
2016-12-31T05:01:43.309Z,1016.05
2016-12-31T05:02:43.315Z,1016.04
2016-12-31T05:03:43.324Z,1016.01
2016-12-31T05:04:43.334Z,1015.96
2016-12-31T05:05:43.344Z,1015.95
2016-12-31T05:06:43.352Z,1015.98
2016-12-31T05:07:43.362Z,1015.97
2016-12-31T05:08:43.371Z,1015.99
2016-12-31T05:09:43.381Z,1015.96
2016-12-31T05:10:43.390Z,1015.92
2016-12-31T05:11:43.399Z,1015.95
2016-12-31T05:12:43.408Z,1015.91
2016-12-31T05:13:43.418Z,1015.91
2016-12-31T05:14:43.429Z,1015.94
2016-12-31T05:15:43.437Z,1015.93
2016-12-31T05:16:43.446Z,1015.93
2016-12-31T05:17:43.454Z,1015.95
2016-12-31T05:18:43.462Z,1015.93
2016-12-31T05:19:43.474Z,1015.9
2016-12-31T05:20:43.480Z,1015.88
2016-12-31T05:21:43.492Z,1015.87
2016-12-31T05:22:43.499Z,1015.87
2016-12-31T05:23:43.510Z,1015.87
2016-12-31T05:24:43.522Z,1015.9
2016-12-31T05:25:43.529Z,1015.81
2016-12-31T05:26:43.535Z,1015.82
2016-12-31T05:27:43.545Z,1015.84
2016-12-31T05:28:43.555Z,1015.81
2016-12-31T05:29:43.565Z,1015.82
2016-12-31T05:30:43.574Z,1015.82
2016-12-31T05:31:43.587Z,1015.81
2016-12-31T05:32:43.590Z,1015.82
2016-12-31T05:33:43.601Z,1015.8
2016-12-31T05:34:43.610Z,1015.83
2016-12-31T05:35:43.622Z,1015.81
2016-12-31T05:36:43.631Z,1015.85
2016-12-31T05:37:43.639Z,1015.82
2016-12-31T05:38:43.650Z,1015.81
2016-12-31T05:39:43.656Z,1015.79
2016-12-31T05:40:43.662Z,1015.83
2016-12-31T05:41:43.673Z,1015.82
2016-12-31T05:42:43.686Z,1015.83
2016-12-31T05:43:43.690Z,1015.81
2016-12-31T05:44:43.698Z,1015.81
2016-12-31T05:45:43.707Z,1015.82
2016-12-31T05:46:43.717Z,1015.8
2016-12-31T05:47:43.723Z,1015.8
2016-12-31T05:48:43.737Z,1015.76
2016-12-31T05:49:43.744Z,1015.81
2016-12-31T05:50:43.753Z,1015.76
2016-12-31T05:51:43.763Z,1015.77
2016-12-31T05:52:43.773Z,1015.81
2016-12-31T05:53:43.780Z,1015.76
2016-12-31T05:54:43.791Z,1015.76
2016-12-31T05:55:43.797Z,1015.78
2016-12-31T05:56:43.831Z,1015.8
2016-12-31T05:57:43.814Z,1015.79
2016-12-31T05:58:43.826Z,1015.86
2016-12-31T05:59:43.832Z,1015.87
2016-12-31T06:00:43.841Z,1015.81
2016-12-31T06:01:43.852Z,1015.82
2016-12-31T06:02:43.859Z,1015.86
2016-12-31T06:03:43.871Z,1015.82
2016-12-31T06:04:43.877Z,1015.83
2016-12-31T06:05:43.884Z,1015.77
2016-12-31T06:06:43.897Z,1015.76
2016-12-31T06:07:43.902Z,1015.78
2016-12-31T06:08:43.913Z,1015.81
2016-12-31T06:09:43.918Z,1015.75
2016-12-31T06:10:43.929Z,1015.79
2016-12-31T06:11:43.938Z,1015.79
2016-12-31T06:12:43.951Z,1015.75
2016-12-31T06:13:43.957Z,1015.72
2016-12-31T06:14:43.969Z,1015.7
2016-12-31T06:15:43.974Z,1015.72
2016-12-31T06:16:43.981Z,1015.79
2016-12-31T06:17:43.996Z,1015.75
2016-12-31T06:18:44.004Z,1015.71
2016-12-31T06:19:44.014Z,1015.78
2016-12-31T06:20:44.023Z,1015.75
2016-12-31T06:21:44.029Z,1015.74
2016-12-31T06:22:44.035Z,1015.69
2016-12-31T06:23:44.051Z,1015.74
2016-12-31T06:24:44.052Z,1015.74
2016-12-31T06:25:44.065Z,1015.73
2016-12-31T06:26:44.073Z,1015.76
2016-12-31T06:27:44.082Z,1015.73
2016-12-31T06:28:44.094Z,1015.75
2016-12-31T06:29:44.101Z,1015.75
2016-12-31T06:30:44.111Z,1015.77
2016-12-31T06:31:44.117Z,1015.76
2016-12-31T06:32:44.126Z,1015.73
2016-12-31T06:33:44.140Z,1015.72
2016-12-31T06:34:44.144Z,1015.72
2016-12-31T06:35:44.152Z,1015.75
2016-12-31T06:36:44.163Z,1015.73
2016-12-31T06:37:44.173Z,1015.66
2016-12-31T06:38:44.180Z,1015.68
2016-12-31T06:39:44.191Z,1015.68
2016-12-31T06:40:44.197Z,1015.67
2016-12-31T06:41:44.211Z,1015.65
2016-12-31T06:42:44.215Z,1015.67
2016-12-31T06:43:44.224Z,1015.67
2016-12-31T06:44:44.235Z,1015.69
2016-12-31T06:45:44.243Z,1015.61
2016-12-31T06:46:44.251Z,1015.64
2016-12-31T06:47:44.260Z,1015.65
2016-12-31T06:48:44.272Z,1015.59
2016-12-31T06:49:44.281Z,1015.61
2016-12-31T06:50:44.287Z,1015.64
2016-12-31T06:51:44.300Z,1015.65
2016-12-31T06:52:44.309Z,1015.66
2016-12-31T06:53:44.316Z,1015.59
2016-12-31T06:54:44.325Z,1015.57
2016-12-31T06:55:44.337Z,1015.58
2016-12-31T06:56:44.343Z,1015.64
2016-12-31T06:57:44.351Z,1015.6
2016-12-31T06:58:44.362Z,1015.59
2016-12-31T06:59:44.372Z,1015.6
2016-12-31T07:00:44.381Z,1015.59
2016-12-31T07:01:44.390Z,1015.61
2016-12-31T07:02:44.399Z,1015.61
2016-12-31T07:03:44.407Z,1015.58
2016-12-31T07:04:44.413Z,1015.57
2016-12-31T07:05:44.426Z,1015.56
2016-12-31T07:06:44.436Z,1015.6
2016-12-31T07:07:44.438Z,1015.6
2016-12-31T07:08:44.447Z,1015.57
2016-12-31T07:09:44.458Z,1015.54
2016-12-31T07:10:44.465Z,1015.55
2016-12-31T07:11:44.474Z,1015.59
2016-12-31T07:12:44.487Z,1015.6
2016-12-31T07:13:44.496Z,1015.63
2016-12-31T07:14:44.504Z,1015.59
2016-12-31T07:15:44.515Z,1015.57
2016-12-31T07:16:44.523Z,1015.58
2016-12-31T07:17:44.529Z,1015.55
2016-12-31T07:18:44.541Z,1015.58
2016-12-31T07:19:44.550Z,1015.57
2016-12-31T07:20:44.558Z,1015.58
2016-12-31T07:21:44.565Z,1015.56
2016-12-31T07:22:44.574Z,1015.59
2016-12-31T07:23:44.580Z,1015.57
2016-12-31T07:24:44.594Z,1015.55
2016-12-31T07:25:44.602Z,1015.54
2016-12-31T07:26:44.608Z,1015.56
2016-12-31T07:27:44.616Z,1015.55
2016-12-31T07:28:44.624Z,1015.51
2016-12-31T07:29:44.635Z,1015.56
2016-12-31T07:30:44.643Z,1015.56
2016-12-31T07:31:44.654Z,1015.52
2016-12-31T07:32:44.663Z,1015.55
2016-12-31T07:33:44.674Z,1015.54
2016-12-31T07:34:44.683Z,1015.52
2016-12-31T07:35:44.691Z,1015.51
2016-12-31T07:36:44.702Z,1015.53
2016-12-31T07:37:44.708Z,1015.53
2016-12-31T07:38:44.720Z,1015.52
2016-12-31T07:39:44.730Z,1015.53
2016-12-31T07:40:44.735Z,1015.52
2016-12-31T07:41:44.748Z,1015.5
2016-12-31T07:42:44.756Z,1015.54
2016-12-31T07:43:44.762Z,1015.5
2016-12-31T07:44:44.770Z,1015.49
2016-12-31T07:45:44.781Z,1015.48
2016-12-31T07:46:44.790Z,1015.48
2016-12-31T07:47:44.796Z,1015.53
2016-12-31T07:48:44.807Z,1015.52
2016-12-31T07:49:44.818Z,1015.49
2016-12-31T07:50:44.827Z,1015.48
2016-12-31T07:51:44.837Z,1015.52
2016-12-31T07:52:44.846Z,1015.53
2016-12-31T07:53:44.854Z,1015.5
2016-12-31T07:54:44.863Z,1015.52
2016-12-31T07:55:44.869Z,1015.52
2016-12-31T07:56:44.879Z,1015.58
2016-12-31T07:57:44.891Z,1015.53
2016-12-31T07:58:44.898Z,1015.54
2016-12-31T07:59:44.909Z,1015.52
2016-12-31T08:00:44.919Z,1015.49
2016-12-31T08:01:44.928Z,1015.47
2016-12-31T08:02:44.935Z,1015.45
2016-12-31T08:03:44.946Z,1015.47
2016-12-31T08:04:44.954Z,1015.49
2016-12-31T08:05:44.964Z,1015.49
2016-12-31T08:06:44.974Z,1015.47
2016-12-31T08:07:44.983Z,1015.49
2016-12-31T08:08:44.991Z,1015.49
2016-12-31T08:09:45.000Z,1015.5
2016-12-31T08:10:45.010Z,1015.52
2016-12-31T08:11:45.016Z,1015.55
2016-12-31T08:12:45.029Z,1015.51
2016-12-31T08:13:45.039Z,1015.58
2016-12-31T08:14:45.047Z,1015.55
2016-12-31T08:15:45.057Z,1015.53
2016-12-31T08:16:45.069Z,1015.54
2016-12-31T08:17:45.078Z,1015.49
2016-12-31T08:18:45.084Z,1015.46
2016-12-31T08:19:45.096Z,1015.45
2016-12-31T08:20:45.104Z,1015.48
2016-12-31T08:21:45.115Z,1015.48
2016-12-31T08:22:45.124Z,1015.49
2016-12-31T08:23:45.137Z,1015.52
2016-12-31T08:24:45.142Z,1015.5
2016-12-31T08:25:45.149Z,1015.51
2016-12-31T08:26:45.162Z,1015.52
2016-12-31T08:27:45.174Z,1015.52
2016-12-31T08:28:45.181Z,1015.52
2016-12-31T08:29:45.189Z,1015.54
2016-12-31T08:30:45.202Z,1015.54
2016-12-31T08:31:45.210Z,1015.62
2016-12-31T08:32:45.221Z,1015.6
2016-12-31T08:33:45.234Z,1015.61
2016-12-31T08:34:45.243Z,1015.6
2016-12-31T08:35:45.252Z,1015.61
2016-12-31T08:36:45.258Z,1015.6
2016-12-31T08:37:45.271Z,1015.6
2016-12-31T08:38:45.283Z,1015.56
2016-12-31T08:39:45.292Z,1015.6
2016-12-31T08:40:45.298Z,1015.58
2016-12-31T08:41:45.314Z,1015.6
2016-12-31T08:42:45.328Z,1015.55
2016-12-31T08:43:45.332Z,1015.6
2016-12-31T08:44:45.339Z,1015.55
2016-12-31T08:45:45.351Z,1015.59
2016-12-31T08:46:45.365Z,1015.59
2016-12-31T08:47:45.373Z,1015.58
2016-12-31T08:48:45.383Z,1015.61
2016-12-31T08:49:45.393Z,1015.64
2016-12-31T08:50:45.403Z,1015.62
2016-12-31T08:51:45.414Z,1015.64
2016-12-31T08:52:45.421Z,1015.6
2016-12-31T08:53:45.433Z,1015.63
2016-12-31T08:54:45.445Z,1015.62
2016-12-31T08:55:45.452Z,1015.63
2016-12-31T08:56:45.464Z,1015.65
2016-12-31T08:57:45.473Z,1015.58
2016-12-31T08:58:45.485Z,1015.62
2016-12-31T08:59:45.491Z,1015.61
2016-12-31T09:00:45.504Z,1015.59
2016-12-31T09:01:45.513Z,1015.6
2016-12-31T09:02:45.524Z,1015.64
2016-12-31T09:03:45.535Z,1015.67
2016-12-31T09:04:45.547Z,1015.63
2016-12-31T09:05:45.555Z,1015.64
2016-12-31T09:06:45.569Z,1015.63
2016-12-31T09:07:45.577Z,1015.62
2016-12-31T09:08:45.586Z,1015.64
2016-12-31T09:09:45.597Z,1015.64
2016-12-31T09:10:45.610Z,1015.66
2016-12-31T09:11:45.620Z,1015.62
2016-12-31T09:12:45.630Z,1015.59
2016-12-31T09:13:45.639Z,1015.58
2016-12-31T09:14:45.647Z,1015.55
2016-12-31T09:15:45.659Z,1015.53
2016-12-31T09:16:45.674Z,1015.57
2016-12-31T09:17:45.678Z,1015.62
2016-12-31T09:18:45.692Z,1015.54
2016-12-31T09:19:45.705Z,1015.58
2016-12-31T09:20:45.714Z,1015.56
2016-12-31T09:21:45.726Z,1015.55
2016-12-31T09:22:45.739Z,1015.57
2016-12-31T09:23:45.746Z,1015.53
2016-12-31T09:24:45.758Z,1015.52
2016-12-31T09:25:45.772Z,1015.52
2016-12-31T09:26:45.781Z,1015.52
2016-12-31T09:27:45.791Z,1015.54
2016-12-31T09:28:45.798Z,1015.54
2016-12-31T09:29:45.814Z,1015.54
2016-12-31T09:30:45.821Z,1015.53
2016-12-31T09:31:45.836Z,1015.56
2016-12-31T09:32:45.843Z,1015.55
2016-12-31T09:33:45.859Z,1015.52
2016-12-31T09:34:45.865Z,1015.51
2016-12-31T09:35:45.880Z,1015.54
2016-12-31T09:36:45.887Z,1015.5
2016-12-31T09:37:45.899Z,1015.55
2016-12-31T09:38:45.908Z,1015.54
2016-12-31T09:39:45.921Z,1015.53
2016-12-31T09:40:45.938Z,1015.54
2016-12-31T09:41:45.945Z,1015.52
2016-12-31T09:42:45.959Z,1015.49
2016-12-31T09:43:45.969Z,1015.53
2016-12-31T09:44:45.978Z,1015.47
2016-12-31T09:45:45.990Z,1015.51
2016-12-31T09:46:46.005Z,1015.46
2016-12-31T09:47:46.014Z,1015.51
2016-12-31T09:48:46.021Z,1015.48
2016-12-31T09:49:46.037Z,1015.47
2016-12-31T09:50:46.047Z,1015.45
2016-12-31T09:51:46.056Z,1015.46
2016-12-31T09:52:46.069Z,1015.47
2016-12-31T09:53:46.082Z,1015.52
2016-12-31T09:54:46.091Z,1015.49
2016-12-31T09:55:46.104Z,1015.47
2016-12-31T09:56:46.113Z,1015.46
2016-12-31T09:57:46.127Z,1015.48
2016-12-31T09:58:46.141Z,1015.49
2016-12-31T09:59:46.198Z,1015.49
2016-12-31T10:00:46.165Z,1015.47
2016-12-31T10:01:46.173Z,1015.49
2016-12-31T10:02:46.186Z,1015.49
2016-12-31T10:03:46.198Z,1015.57
2016-12-31T10:04:46.209Z,1015.51
2016-12-31T10:05:46.224Z,1015.51
2016-12-31T10:06:46.234Z,1015.53
2016-12-31T10:07:46.245Z,1015.48
2016-12-31T10:08:46.259Z,1015.5
2016-12-31T10:09:46.272Z,1015.52
2016-12-31T10:10:46.282Z,1015.53
2016-12-31T10:11:46.291Z,1015.54
2016-12-31T10:12:46.303Z,1015.49
2016-12-31T10:13:46.316Z,1015.5
2016-12-31T10:14:46.326Z,1015.54
2016-12-31T10:15:46.338Z,1015.52
2016-12-31T10:16:46.354Z,1015.58
2016-12-31T10:17:46.364Z,1015.57
2016-12-31T10:18:46.375Z,1015.56
2016-12-31T10:19:46.386Z,1015.51
2016-12-31T10:20:46.397Z,1015.51
2016-12-31T10:21:46.410Z,1015.5
2016-12-31T10:22:46.424Z,1015.46
2016-12-31T10:23:46.433Z,1015.48
2016-12-31T10:24:46.447Z,1015.43
2016-12-31T10:25:46.459Z,1015.41
2016-12-31T10:26:46.469Z,1015.4
2016-12-31T10:27:46.484Z,1015.39
2016-12-31T10:28:46.494Z,1015.38
2016-12-31T10:29:46.506Z,1015.36
2016-12-31T10:30:46.518Z,1015.36
2016-12-31T10:31:46.530Z,1015.34
2016-12-31T10:32:46.541Z,1015.34
2016-12-31T10:33:46.552Z,1015.36
2016-12-31T10:34:46.568Z,1015.38
2016-12-31T10:35:46.578Z,1015.37
2016-12-31T10:36:46.593Z,1015.39
2016-12-31T10:37:46.604Z,1015.4
2016-12-31T10:38:46.616Z,1015.4
2016-12-31T10:39:46.626Z,1015.37
2016-12-31T10:40:46.639Z,1015.43
2016-12-31T10:41:46.655Z,1015.37
2016-12-31T10:42:46.666Z,1015.36
2016-12-31T10:43:46.679Z,1015.32
2016-12-31T10:44:46.692Z,1015.34
2016-12-31T10:45:46.702Z,1015.37
2016-12-31T10:46:46.720Z,1015.35
2016-12-31T10:47:46.726Z,1015.33
2016-12-31T10:48:46.742Z,1015.31
2016-12-31T10:49:46.752Z,1015.31
2016-12-31T10:50:46.768Z,1015.26
2016-12-31T10:51:46.781Z,1015.27
2016-12-31T10:52:46.790Z,1015.26
2016-12-31T10:53:46.800Z,1015.24
2016-12-31T10:54:46.813Z,1015.23
2016-12-31T10:55:46.831Z,1015.19
2016-12-31T10:56:46.843Z,1015.14
2016-12-31T10:57:46.854Z,1015.17
2016-12-31T10:58:46.861Z,1015.15
2016-12-31T10:59:46.873Z,1015.18
2016-12-31T11:00:46.889Z,1015.16
2016-12-31T11:01:46.942Z,1015.18
2016-12-31T11:02:46.957Z,1015.2
2016-12-31T11:03:46.924Z,1015.21
2016-12-31T11:04:46.961Z,1015.18
2016-12-31T11:05:46.991Z,1015.14
2016-12-31T11:06:46.996Z,1015.1
2016-12-31T11:07:47.024Z,1015.13
2016-12-31T11:08:47.033Z,1015.11
2016-12-31T11:09:47.070Z,1015.04
2016-12-31T11:10:47.055Z,1015.08
2016-12-31T11:11:47.057Z,1015.02
2016-12-31T11:12:47.057Z,1015.02
2016-12-31T11:13:47.060Z,1015.04
2016-12-31T11:14:47.063Z,1015.03
2016-12-31T11:15:47.073Z,1015.04
2016-12-31T11:16:47.084Z,1015.03
2016-12-31T11:17:47.095Z,1015
2016-12-31T11:18:47.110Z,1015.01
2016-12-31T11:19:47.120Z,1015.01
2016-12-31T11:20:47.136Z,1015
2016-12-31T11:21:47.144Z,1015.01
2016-12-31T11:22:47.155Z,1014.99
2016-12-31T11:23:47.168Z,1014.98
2016-12-31T11:24:47.185Z,1014.95
2016-12-31T11:25:47.194Z,1014.89
2016-12-31T11:26:47.207Z,1014.89
2016-12-31T11:27:47.219Z,1014.9
2016-12-31T11:28:47.232Z,1014.87
2016-12-31T11:29:47.242Z,1014.86
2016-12-31T11:30:47.258Z,1014.88
2016-12-31T11:31:47.269Z,1014.85
2016-12-31T11:32:47.281Z,1014.85
2016-12-31T11:33:47.300Z,1014.85
2016-12-31T11:34:47.305Z,1014.84
2016-12-31T11:35:47.318Z,1014.81
2016-12-31T11:36:47.332Z,1014.85
2016-12-31T11:37:47.343Z,1014.82
2016-12-31T11:38:47.354Z,1014.78
2016-12-31T11:39:47.371Z,1014.79
2016-12-31T11:40:47.381Z,1014.83
2016-12-31T11:41:47.396Z,1014.8
2016-12-31T11:42:47.406Z,1014.8
2016-12-31T11:43:47.421Z,1014.81
2016-12-31T11:44:47.434Z,1014.83
2016-12-31T11:45:47.442Z,1014.77
2016-12-31T11:46:47.459Z,1014.82
2016-12-31T11:47:47.470Z,1014.77
2016-12-31T11:48:47.483Z,1014.76
2016-12-31T11:49:47.497Z,1014.76
2016-12-31T11:50:47.508Z,1014.74
2016-12-31T11:51:47.518Z,1014.7
2016-12-31T11:52:47.528Z,1014.71
2016-12-31T11:53:47.545Z,1014.69
2016-12-31T11:54:47.556Z,1014.66
2016-12-31T11:55:47.570Z,1014.63
2016-12-31T11:56:47.580Z,1014.68
2016-12-31T11:57:47.596Z,1014.68
2016-12-31T11:58:47.608Z,1014.73
2016-12-31T11:59:47.618Z,1014.7
2016-12-31T12:00:47.631Z,1014.65
2016-12-31T12:01:47.644Z,1014.64
2016-12-31T12:02:47.656Z,1014.69
2016-12-31T12:03:47.670Z,1014.67
2016-12-31T12:04:47.683Z,1014.62
2016-12-31T12:05:47.694Z,1014.61
2016-12-31T12:06:47.706Z,1014.63
2016-12-31T12:07:47.719Z,1014.62
2016-12-31T12:08:47.732Z,1014.61
2016-12-31T12:09:47.744Z,1014.62